sensor_id;sensor_type;location;lat;lon;timestamp;P1;durP1;ratioP1;P2;durP2;ratioP2
39792;SDS011;26080;42.264;24.536;2022-12-18T00:00:31;5.95;;;3.58;;
39792;SDS011;26080;42.264;24.536;2022-12-18T00:02:56;4.35;;;3.20;;
39792;SDS011;26080;42.264;24.536;2022-12-18T00:05:22;2.92;;;2.40;;
39792;SDS011;26080;42.264;24.536;2022-12-18T00:07:47;7.60;;;3.20;;
39792;SDS011;26080;42.264;24.536;2022-12-18T00:10:13;5.50;;;2.78;;
39792;SDS011;26080;42.264;24.536;2022-12-18T00:12:38;3.47;;;2.38;;
39792;SDS011;26080;42.264;24.536;2022-12-18T00:15:04;2.33;;;1.70;;
39792;SDS011;26080;42.264;24.536;2022-12-18T00:17:29;6.35;;;2.15;;
39792;SDS011;26080;42.264;24.536;2022-12-18T00:19:55;3.72;;;1.52;;
39792;SDS011;26080;42.264;24.536;2022-12-18T00:22:20;6.10;;;3.00;;
39792;SDS011;26080;42.264;24.536;2022-12-18T00:24:46;2.80;;;2.22;;
39792;SDS011;26080;42.264;24.536;2022-12-18T00:27:11;2.65;;;2.15;;
39792;SDS011;26080;42.264;24.536;2022-12-18T00:29:36;5.53;;;2.47;;
39792;SDS011;26080;42.264;24.536;2022-12-18T00:32:02;2.55;;;1.58;;
39792;SDS011;26080;42.264;24.536;2022-12-18T00:34:27;2.30;;;1.90;;
39792;SDS011;26080;42.264;24.536;2022-12-18T00:36:53;2.40;;;2.20;;
39792;SDS011;26080;42.264;24.536;2022-12-18T00:39:18;6.80;;;3.28;;
39792;SDS011;26080;42.264;24.536;2022-12-18T00:41:44;4.53;;;2.60;;
39792;SDS011;26080;42.264;24.536;2022-12-18T00:44:27;6.15;;;2.78;;
39792;SDS011;26080;42.264;24.536;2022-12-18T00:46:53;2.72;;;1.48;;
39792;SDS011;26080;42.264;24.536;2022-12-18T00:49:19;11.90;;;3.45;;
39792;SDS011;26080;42.264;24.536;2022-12-18T00:51:45;5.07;;;2.17;;
39792;SDS011;26080;42.264;24.536;2022-12-18T00:54:10;4.97;;;3.28;;
39792;SDS011;26080;42.264;24.536;2022-12-18T00:56:36;1.70;;;1.60;;
39792;SDS011;26080;42.264;24.536;2022-12-18T00:59:03;2.28;;;2.10;;
39792;SDS011;26080;42.264;24.536;2022-12-18T01:01:29;3.55;;;2.38;;
39792;SDS011;26080;42.264;24.536;2022-12-18T01:03:54;5.03;;;2.85;;
39792;SDS011;26080;42.264;24.536;2022-12-18T01:06:20;3.47;;;2.47;;
39792;SDS011;26080;42.264;24.536;2022-12-18T01:08:45;3.63;;;2.85;;
39792;SDS011;26080;42.264;24.536;2022-12-18T01:11:12;5.82;;;4.00;;
39792;SDS011;26080;42.264;24.536;2022-12-18T01:13:39;8.95;;;3.00;;
39792;SDS011;26080;42.264;24.536;2022-12-18T01:16:05;7.53;;;3.88;;
39792;SDS011;26080;42.264;24.536;2022-12-18T01:18:31;3.03;;;2.67;;
39792;SDS011;26080;42.264;24.536;2022-12-18T01:20:57;4.03;;;3.47;;
39792;SDS011;26080;42.264;24.536;2022-12-18T01:23:22;2.22;;;2.03;;
39792;SDS011;26080;42.264;24.536;2022-12-18T01:25:48;3.95;;;2.70;;
39792;SDS011;26080;42.264;24.536;2022-12-18T01:28:13;3.17;;;2.83;;
39792;SDS011;26080;42.264;24.536;2022-12-18T01:30:39;4.75;;;2.85;;
39792;SDS011;26080;42.264;24.536;2022-12-18T01:33:04;5.13;;;2.90;;
39792;SDS011;26080;42.264;24.536;2022-12-18T01:35:30;5.90;;;2.72;;
39792;SDS011;26080;42.264;24.536;2022-12-18T01:37:56;3.40;;;2.05;;
39792;SDS011;26080;42.264;24.536;2022-12-18T01:40:22;4.82;;;2.65;;
39792;SDS011;26080;42.264;24.536;2022-12-18T01:42:51;3.50;;;2.47;;
39792;SDS011;26080;42.264;24.536;2022-12-18T01:50:13;2.63;;;1.65;;
39792;SDS011;26080;42.264;24.536;2022-12-18T01:52:46;6.32;;;2.70;;
39792;SDS011;26080;42.264;24.536;2022-12-18T01:55:14;7.32;;;3.65;;
39792;SDS011;26080;42.264;24.536;2022-12-18T01:57:42;4.38;;;2.53;;
39792;SDS011;26080;42.264;24.536;2022-12-18T02:00:10;6.22;;;3.53;;
39792;SDS011;26080;42.264;24.536;2022-12-18T02:02:38;3.25;;;2.80;;
39792;SDS011;26080;42.264;24.536;2022-12-18T02:05:05;3.95;;;2.08;;
39792;SDS011;26080;42.264;24.536;2022-12-18T02:12:56;4.57;;;3.35;;
39792;SDS011;26080;42.264;24.536;2022-12-18T02:16:16;10.50;;;2.53;;
39792;SDS011;26080;42.264;24.536;2022-12-18T02:18:33;5.43;;;3.08;;
39792;SDS011;26080;42.264;24.536;2022-12-18T02:26:43;6.55;;;3.22;;
39792;SDS011;26080;42.264;24.536;2022-12-18T02:29:31;3.40;;;2.58;;
39792;SDS011;26080;42.264;24.536;2022-12-18T02:32:02;4.03;;;1.20;;
39792;SDS011;26080;42.264;24.536;2022-12-18T02:34:31;2.10;;;1.58;;
39792;SDS011;26080;42.264;24.536;2022-12-18T02:37:00;4.07;;;2.53;;
39792;SDS011;26080;42.264;24.536;2022-12-18T02:39:29;4.40;;;3.30;;
39792;SDS011;26080;42.264;24.536;2022-12-18T02:41:57;5.75;;;2.55;;
39792;SDS011;26080;42.264;24.536;2022-12-18T02:44:23;6.45;;;3.15;;
39792;SDS011;26080;42.264;24.536;2022-12-18T02:46:50;3.60;;;2.30;;
39792;SDS011;26080;42.264;24.536;2022-12-18T02:49:22;1.75;;;1.65;;
39792;SDS011;26080;42.264;24.536;2022-12-18T02:58:19;5.07;;;1.85;;
39792;SDS011;26080;42.264;24.536;2022-12-18T03:00:53;3.85;;;2.25;;
39792;SDS011;26080;42.264;24.536;2022-12-18T03:03:29;7.53;;;2.90;;
39792;SDS011;26080;42.264;24.536;2022-12-18T03:06:02;8.05;;;1.98;;
39792;SDS011;26080;42.264;24.536;2022-12-18T03:08:36;3.58;;;3.17;;
39792;SDS011;26080;42.264;24.536;2022-12-18T03:11:07;4.95;;;2.05;;
39792;SDS011;26080;42.264;24.536;2022-12-18T03:13:36;6.22;;;3.40;;
39792;SDS011;26080;42.264;24.536;2022-12-18T03:16:05;2.75;;;2.25;;
39792;SDS011;26080;42.264;24.536;2022-12-18T03:21:02;3.13;;;2.03;;
39792;SDS011;26080;42.264;24.536;2022-12-18T03:23:32;2.17;;;1.98;;
39792;SDS011;26080;42.264;24.536;2022-12-18T03:26:05;3.13;;;2.13;;
39792;SDS011;26080;42.264;24.536;2022-12-18T03:28:35;2.53;;;1.42;;
39792;SDS011;26080;42.264;24.536;2022-12-18T03:31:04;2.40;;;2.22;;
39792;SDS011;26080;42.264;24.536;2022-12-18T03:33:37;9.25;;;3.33;;
39792;SDS011;26080;42.264;24.536;2022-12-18T03:36:10;2.45;;;2.22;;
39792;SDS011;26080;42.264;24.536;2022-12-18T03:38:36;3.40;;;1.83;;
39792;SDS011;26080;42.264;24.536;2022-12-18T03:55:02;0.63;;;0.57;;
39792;SDS011;26080;42.264;24.536;2022-12-18T03:57:30;1.58;;;0.77;;
39792;SDS011;26080;42.264;24.536;2022-12-18T03:59:59;2.58;;;1.45;;
39792;SDS011;26080;42.264;24.536;2022-12-18T04:02:29;1.35;;;1.13;;
39792;SDS011;26080;42.264;24.536;2022-12-18T04:05:00;2.00;;;1.42;;
39792;SDS011;26080;42.264;24.536;2022-12-18T04:07:29;2.45;;;1.27;;
39792;SDS011;26080;42.264;24.536;2022-12-18T04:09:56;1.17;;;0.95;;
39792;SDS011;26080;42.264;24.536;2022-12-18T04:12:24;4.40;;;1.45;;
39792;SDS011;26080;42.264;24.536;2022-12-18T04:14:54;1.95;;;1.05;;
39792;SDS011;26080;42.264;24.536;2022-12-18T04:17:19;2.58;;;1.30;;
39792;SDS011;26080;42.264;24.536;2022-12-18T04:19:45;4.75;;;1.80;;
39792;SDS011;26080;42.264;24.536;2022-12-18T04:22:11;3.03;;;1.88;;
39792;SDS011;26080;42.264;24.536;2022-12-18T04:24:36;3.38;;;1.40;;
39792;SDS011;26080;42.264;24.536;2022-12-18T04:27:02;3.30;;;1.75;;
39792;SDS011;26080;42.264;24.536;2022-12-18T04:29:28;1.50;;;0.93;;
39792;SDS011;26080;42.264;24.536;2022-12-18T04:31:53;1.15;;;0.80;;
39792;SDS011;26080;42.264;24.536;2022-12-18T04:34:19;3.03;;;1.70;;
39792;SDS011;26080;42.264;24.536;2022-12-18T04:36:45;5.30;;;1.00;;
39792;SDS011;26080;42.264;24.536;2022-12-18T04:39:10;1.90;;;1.35;;
39792;SDS011;26080;42.264;24.536;2022-12-18T04:41:36;3.88;;;2.40;;
39792;SDS011;26080;42.264;24.536;2022-12-18T04:44:01;0.50;;;0.50;;
39792;SDS011;26080;42.264;24.536;2022-12-18T04:46:27;1.85;;;1.33;;
39792;SDS011;26080;42.264;24.536;2022-12-18T04:48:55;1.83;;;1.17;;
39792;SDS011;26080;42.264;24.536;2022-12-18T04:51:24;2.42;;;1.52;;
39792;SDS011;26080;42.264;24.536;2022-12-18T04:53:49;3.13;;;1.48;;
39792;SDS011;26080;42.264;24.536;2022-12-18T04:56:15;1.90;;;0.98;;
39792;SDS011;26080;42.264;24.536;2022-12-18T04:58:42;1.63;;;1.20;;
39792;SDS011;26080;42.264;24.536;2022-12-18T05:01:09;2.85;;;1.85;;
39792;SDS011;26080;42.264;24.536;2022-12-18T05:03:36;4.97;;;2.30;;
39792;SDS011;26080;42.264;24.536;2022-12-18T05:06:02;2.25;;;1.38;;
39792;SDS011;26080;42.264;24.536;2022-12-18T05:08:28;2.72;;;1.67;;
39792;SDS011;26080;42.264;24.536;2022-12-18T05:11:00;1.58;;;0.98;;
39792;SDS011;26080;42.264;24.536;2022-12-18T05:13:30;2.45;;;1.33;;
39792;SDS011;26080;42.264;24.536;2022-12-18T05:15:56;4.53;;;2.17;;
39792;SDS011;26080;42.264;24.536;2022-12-18T05:18:22;8.30;;;2.15;;
39792;SDS011;26080;42.264;24.536;2022-12-18T05:20:49;2.42;;;1.60;;
39792;SDS011;26080;42.264;24.536;2022-12-18T05:23:15;2.60;;;1.58;;
39792;SDS011;26080;42.264;24.536;2022-12-18T05:25:40;1.98;;;1.45;;
39792;SDS011;26080;42.264;24.536;2022-12-18T05:28:06;2.10;;;1.02;;
39792;SDS011;26080;42.264;24.536;2022-12-18T05:30:31;1.05;;;0.95;;
39792;SDS011;26080;42.264;24.536;2022-12-18T05:32:56;1.58;;;1.42;;
39792;SDS011;26080;42.264;24.536;2022-12-18T05:35:22;1.50;;;1.40;;
39792;SDS011;26080;42.264;24.536;2022-12-18T05:37:47;3.17;;;1.80;;
39792;SDS011;26080;42.264;24.536;2022-12-18T05:40:13;4.10;;;2.63;;
39792;SDS011;26080;42.264;24.536;2022-12-18T05:42:38;0.93;;;0.90;;
39792;SDS011;26080;42.264;24.536;2022-12-18T05:45:04;4.53;;;2.17;;
39792;SDS011;26080;42.264;24.536;2022-12-18T05:47:31;3.25;;;2.30;;
39792;SDS011;26080;42.264;24.536;2022-12-18T05:49:56;3.33;;;2.53;;
39792;SDS011;26080;42.264;24.536;2022-12-18T05:52:22;12.88;;;7.82;;
39792;SDS011;26080;42.264;24.536;2022-12-18T05:54:47;15.48;;;6.70;;
39792;SDS011;26080;42.264;24.536;2022-12-18T05:57:13;7.25;;;4.10;;
39792;SDS011;26080;42.264;24.536;2022-12-18T05:59:38;2.78;;;2.42;;
39792;SDS011;26080;42.264;24.536;2022-12-18T06:02:04;6.13;;;2.28;;
39792;SDS011;26080;42.264;24.536;2022-12-18T06:04:29;6.13;;;3.15;;
39792;SDS011;26080;42.264;24.536;2022-12-18T06:06:55;1.10;;;0.82;;
39792;SDS011;26080;42.264;24.536;2022-12-18T06:09:20;2.13;;;1.38;;
39792;SDS011;26080;42.264;24.536;2022-12-18T06:11:46;1.80;;;1.20;;
39792;SDS011;26080;42.264;24.536;2022-12-18T06:14:11;3.50;;;2.45;;
39792;SDS011;26080;42.264;24.536;2022-12-18T06:16:37;4.28;;;3.28;;
39792;SDS011;26080;42.264;24.536;2022-12-18T06:19:03;2.85;;;1.52;;
39792;SDS011;26080;42.264;24.536;2022-12-18T06:21:30;1.40;;;1.27;;
39792;SDS011;26080;42.264;24.536;2022-12-18T06:23:56;7.30;;;3.50;;
39792;SDS011;26080;42.264;24.536;2022-12-18T06:26:22;3.30;;;2.03;;
39792;SDS011;26080;42.264;24.536;2022-12-18T06:28:48;6.05;;;2.90;;
39792;SDS011;26080;42.264;24.536;2022-12-18T06:31:14;2.83;;;1.35;;
39792;SDS011;26080;42.264;24.536;2022-12-18T06:33:39;8.80;;;1.90;;
39792;SDS011;26080;42.264;24.536;2022-12-18T06:38:35;1.70;;;1.40;;
39792;SDS011;26080;42.264;24.536;2022-12-18T06:41:13;2.00;;;1.80;;
39792;SDS011;26080;42.264;24.536;2022-12-18T06:43:40;12.80;;;4.88;;
39792;SDS011;26080;42.264;24.536;2022-12-18T06:46:18;5.88;;;3.55;;
39792;SDS011;26080;42.264;24.536;2022-12-18T06:48:46;1.00;;;0.90;;
39792;SDS011;26080;42.264;24.536;2022-12-18T06:51:22;5.47;;;3.22;;
39792;SDS011;26080;42.264;24.536;2022-12-18T06:53:48;3.30;;;2.85;;
39792;SDS011;26080;42.264;24.536;2022-12-18T06:56:14;0.77;;;0.77;;
39792;SDS011;26080;42.264;24.536;2022-12-18T06:58:40;6.40;;;3.28;;
39792;SDS011;26080;42.264;24.536;2022-12-18T07:01:06;3.20;;;2.42;;
39792;SDS011;26080;42.264;24.536;2022-12-18T07:03:35;7.75;;;4.07;;
39792;SDS011;26080;42.264;24.536;2022-12-18T07:06:04;2.95;;;2.60;;
39792;SDS011;26080;42.264;24.536;2022-12-18T07:08:30;2.30;;;2.00;;
39792;SDS011;26080;42.264;24.536;2022-12-18T07:10:56;4.30;;;3.15;;
39792;SDS011;26080;42.264;24.536;2022-12-18T07:13:22;2.88;;;2.20;;
39792;SDS011;26080;42.264;24.536;2022-12-18T07:15:47;3.05;;;1.83;;
39792;SDS011;26080;42.264;24.536;2022-12-18T07:18:13;0.95;;;0.90;;
39792;SDS011;26080;42.264;24.536;2022-12-18T07:20:38;4.35;;;1.50;;
39792;SDS011;26080;42.264;24.536;2022-12-18T07:23:04;1.98;;;1.83;;
39792;SDS011;26080;42.264;24.536;2022-12-18T07:25:32;4.20;;;2.13;;
39792;SDS011;26080;42.264;24.536;2022-12-18T07:27:59;1.23;;;1.13;;
39792;SDS011;26080;42.264;24.536;2022-12-18T07:30:25;1.65;;;1.38;;
39792;SDS011;26080;42.264;24.536;2022-12-18T07:32:50;1.55;;;1.45;;
39792;SDS011;26080;42.264;24.536;2022-12-18T07:35:16;1.58;;;1.35;;
39792;SDS011;26080;42.264;24.536;2022-12-18T07:37:41;3.92;;;1.65;;
39792;SDS011;26080;42.264;24.536;2022-12-18T07:40:07;1.88;;;1.20;;
39792;SDS011;26080;42.264;24.536;2022-12-18T07:42:36;2.70;;;2.20;;
39792;SDS011;26080;42.264;24.536;2022-12-18T07:45:02;4.28;;;1.52;;
39792;SDS011;26080;42.264;24.536;2022-12-18T07:47:33;0.85;;;0.85;;
39792;SDS011;26080;42.264;24.536;2022-12-18T07:50:01;2.35;;;1.58;;
39792;SDS011;26080;42.264;24.536;2022-12-18T07:52:30;2.58;;;1.55;;
39792;SDS011;26080;42.264;24.536;2022-12-18T07:54:55;4.10;;;2.03;;
39792;SDS011;26080;42.264;24.536;2022-12-18T07:57:21;4.97;;;1.92;;
39792;SDS011;26080;42.264;24.536;2022-12-18T07:59:46;2.50;;;1.33;;
39792;SDS011;26080;42.264;24.536;2022-12-18T08:02:12;3.20;;;1.40;;
39792;SDS011;26080;42.264;24.536;2022-12-18T08:04:37;3.60;;;2.13;;
39792;SDS011;26080;42.264;24.536;2022-12-18T08:07:03;4.22;;;1.20;;
39792;SDS011;26080;42.264;24.536;2022-12-18T08:09:28;1.90;;;1.65;;
39792;SDS011;26080;42.264;24.536;2022-12-18T08:11:54;1.45;;;1.35;;
39792;SDS011;26080;42.264;24.536;2022-12-18T08:14:19;1.52;;;1.23;;
39792;SDS011;26080;42.264;24.536;2022-12-18T08:16:45;6.78;;;2.20;;
39792;SDS011;26080;42.264;24.536;2022-12-18T08:19:10;1.17;;;0.73;;
39792;SDS011;26080;42.264;24.536;2022-12-18T08:21:35;3.85;;;1.35;;
39792;SDS011;26080;42.264;24.536;2022-12-18T08:24:06;1.83;;;1.48;;
39792;SDS011;26080;42.264;24.536;2022-12-18T08:26:32;2.97;;;1.52;;
39792;SDS011;26080;42.264;24.536;2022-12-18T08:28:58;1.65;;;1.10;;
39792;SDS011;26080;42.264;24.536;2022-12-18T08:31:25;1.77;;;1.67;;
39792;SDS011;26080;42.264;24.536;2022-12-18T08:33:52;3.15;;;1.85;;
39792;SDS011;26080;42.264;24.536;2022-12-18T08:36:18;2.33;;;1.75;;
39792;SDS011;26080;42.264;24.536;2022-12-18T08:38:45;3.35;;;2.17;;
39792;SDS011;26080;42.264;24.536;2022-12-18T08:41:12;5.53;;;1.73;;
39792;SDS011;26080;42.264;24.536;2022-12-18T08:43:39;1.67;;;1.30;;
39792;SDS011;26080;42.264;24.536;2022-12-18T08:46:24;1.95;;;1.48;;
39792;SDS011;26080;42.264;24.536;2022-12-18T08:48:51;3.00;;;1.65;;
39792;SDS011;26080;42.264;24.536;2022-12-18T08:51:18;4.95;;;2.67;;
39792;SDS011;26080;42.264;24.536;2022-12-18T08:53:44;3.15;;;2.28;;
39792;SDS011;26080;42.264;24.536;2022-12-18T08:56:10;5.22;;;2.45;;
39792;SDS011;26080;42.264;24.536;2022-12-18T08:58:35;7.63;;;2.90;;
39792;SDS011;26080;42.264;24.536;2022-12-18T09:01:04;4.72;;;2.72;;
39792;SDS011;26080;42.264;24.536;2022-12-18T09:03:31;6.05;;;2.60;;
39792;SDS011;26080;42.264;24.536;2022-12-18T09:05:57;3.75;;;3.17;;
39792;SDS011;26080;42.264;24.536;2022-12-18T09:08:23;4.85;;;3.35;;
39792;SDS011;26080;42.264;24.536;2022-12-18T09:10:49;3.80;;;2.38;;
39792;SDS011;26080;42.264;24.536;2022-12-18T09:13:16;2.70;;;2.25;;
39792;SDS011;26080;42.264;24.536;2022-12-18T09:15:43;3.33;;;2.40;;
39792;SDS011;26080;42.264;24.536;2022-12-18T09:18:10;2.47;;;1.50;;
39792;SDS011;26080;42.264;24.536;2022-12-18T09:20:36;1.60;;;1.17;;
39792;SDS011;26080;42.264;24.536;2022-12-18T09:23:03;3.53;;;1.75;;
39792;SDS011;26080;42.264;24.536;2022-12-18T09:25:29;8.27;;;2.45;;
39792;SDS011;26080;42.264;24.536;2022-12-18T09:28:05;4.68;;;1.83;;
39792;SDS011;26080;42.264;24.536;2022-12-18T09:30:38;5.35;;;3.47;;
39792;SDS011;26080;42.264;24.536;2022-12-18T09:33:05;3.03;;;2.38;;
39792;SDS011;26080;42.264;24.536;2022-12-18T09:35:30;2.85;;;1.63;;
39792;SDS011;26080;42.264;24.536;2022-12-18T09:37:56;1.75;;;1.65;;
39792;SDS011;26080;42.264;24.536;2022-12-18T09:40:22;3.38;;;2.22;;
39792;SDS011;26080;42.264;24.536;2022-12-18T09:43:00;7.55;;;4.85;;
39792;SDS011;26080;42.264;24.536;2022-12-18T09:45:31;7.57;;;2.70;;
39792;SDS011;26080;42.264;24.536;2022-12-18T09:48:10;5.95;;;4.82;;
39792;SDS011;26080;42.264;24.536;2022-12-18T09:50:51;15.55;;;6.90;;
39792;SDS011;26080;42.264;24.536;2022-12-18T09:53:23;4.93;;;2.83;;
39792;SDS011;26080;42.264;24.536;2022-12-18T09:55:51;11.07;;;4.15;;
39792;SDS011;26080;42.264;24.536;2022-12-18T10:00:56;21.25;;;7.88;;
39792;SDS011;26080;42.264;24.536;2022-12-18T10:03:22;10.25;;;5.00;;
39792;SDS011;26080;42.264;24.536;2022-12-18T10:06:02;10.00;;;4.90;;
39792;SDS011;26080;42.264;24.536;2022-12-18T10:11:44;5.90;;;3.45;;
39792;SDS011;26080;42.264;24.536;2022-12-18T10:20:10;9.15;;;4.97;;
39792;SDS011;26080;42.264;24.536;2022-12-18T10:23:43;18.67;;;4.03;;
39792;SDS011;26080;42.264;24.536;2022-12-18T10:25:59;8.18;;;2.92;;
39792;SDS011;26080;42.264;24.536;2022-12-18T10:28:27;5.35;;;3.08;;
39792;SDS011;26080;42.264;24.536;2022-12-18T10:30:55;9.10;;;4.15;;
39792;SDS011;26080;42.264;24.536;2022-12-18T10:33:22;3.88;;;3.58;;
39792;SDS011;26080;42.264;24.536;2022-12-18T10:35:49;8.77;;;4.07;;
39792;SDS011;26080;42.264;24.536;2022-12-18T10:40:57;5.45;;;2.80;;
39792;SDS011;26080;42.264;24.536;2022-12-18T10:43:34;4.35;;;2.65;;
39792;SDS011;26080;42.264;24.536;2022-12-18T10:51:04;4.28;;;2.08;;
39792;SDS011;26080;42.264;24.536;2022-12-18T10:53:31;8.52;;;4.30;;
39792;SDS011;26080;42.264;24.536;2022-12-18T10:56:02;2.70;;;1.73;;
39792;SDS011;26080;42.264;24.536;2022-12-18T11:03:43;10.90;;;3.72;;
39792;SDS011;26080;42.264;24.536;2022-12-18T11:08:44;3.95;;;3.15;;
39792;SDS011;26080;42.264;24.536;2022-12-18T11:11:23;8.50;;;2.70;;
39792;SDS011;26080;42.264;24.536;2022-12-18T11:13:57;6.68;;;2.60;;
39792;SDS011;26080;42.264;24.536;2022-12-18T11:16:26;5.00;;;2.97;;
39792;SDS011;26080;42.264;24.536;2022-12-18T11:18:53;6.43;;;3.47;;
39792;SDS011;26080;42.264;24.536;2022-12-18T11:21:19;2.80;;;2.15;;
39792;SDS011;26080;42.264;24.536;2022-12-18T11:23:51;4.22;;;2.35;;
39792;SDS011;26080;42.264;24.536;2022-12-18T11:26:18;7.53;;;4.22;;
39792;SDS011;26080;42.264;24.536;2022-12-18T11:31:28;3.97;;;2.83;;
39792;SDS011;26080;42.264;24.536;2022-12-18T11:36:24;5.63;;;3.30;;
39792;SDS011;26080;42.264;24.536;2022-12-18T11:38:53;4.82;;;3.47;;
39792;SDS011;26080;42.264;24.536;2022-12-18T11:44:26;6.50;;;4.03;;
39792;SDS011;26080;42.264;24.536;2022-12-18T11:47:08;6.38;;;4.78;;
39792;SDS011;26080;42.264;24.536;2022-12-18T11:49:47;9.40;;;5.88;;
39792;SDS011;26080;42.264;24.536;2022-12-18T11:54:43;2.97;;;1.90;;
39792;SDS011;26080;42.264;24.536;2022-12-18T12:08:22;13.80;;;4.10;;
39792;SDS011;26080;42.264;24.536;2022-12-18T12:11:09;3.15;;;2.85;;
39792;SDS011;26080;42.264;24.536;2022-12-18T12:13:56;6.00;;;4.22;;
39792;SDS011;26080;42.264;24.536;2022-12-18T12:17:02;5.65;;;3.72;;
39792;SDS011;26080;42.264;24.536;2022-12-18T12:40:20;7.63;;;5.00;;
39792;SDS011;26080;42.264;24.536;2022-12-18T12:42:52;13.80;;;7.45;;
39792;SDS011;26080;42.264;24.536;2022-12-18T12:48:35;3.83;;;2.63;;
39792;SDS011;26080;42.264;24.536;2022-12-18T12:53:50;7.65;;;3.63;;
39792;SDS011;26080;42.264;24.536;2022-12-18T12:56:18;7.05;;;3.60;;
39792;SDS011;26080;42.264;24.536;2022-12-18T13:04:39;4.43;;;2.92;;
39792;SDS011;26080;42.264;24.536;2022-12-18T13:20:47;5.10;;;3.75;;
39792;SDS011;26080;42.264;24.536;2022-12-18T13:25:55;8.38;;;5.18;;
39792;SDS011;26080;42.264;24.536;2022-12-18T13:30:58;23.27;;;9.90;;
39792;SDS011;26080;42.264;24.536;2022-12-18T13:33:36;10.52;;;6.13;;
39792;SDS011;26080;42.264;24.536;2022-12-18T13:38:42;10.30;;;7.22;;
39792;SDS011;26080;42.264;24.536;2022-12-18T13:43:45;6.50;;;2.83;;
39792;SDS011;26080;42.264;24.536;2022-12-18T13:51:43;4.93;;;4.30;;
39792;SDS011;26080;42.264;24.536;2022-12-18T13:56:58;6.75;;;4.03;;
39792;SDS011;26080;42.264;24.536;2022-12-18T13:59:24;5.50;;;3.05;;
39792;SDS011;26080;42.264;24.536;2022-12-18T14:01:55;4.15;;;3.13;;
39792;SDS011;26080;42.264;24.536;2022-12-18T14:04:24;4.68;;;2.70;;
39792;SDS011;26080;42.264;24.536;2022-12-18T14:09:34;8.05;;;4.68;;
39792;SDS011;26080;42.264;24.536;2022-12-18T14:12:02;12.35;;;3.20;;
39792;SDS011;26080;42.264;24.536;2022-12-18T14:14:47;6.18;;;3.45;;
39792;SDS011;26080;42.264;24.536;2022-12-18T14:17:15;6.30;;;2.97;;
39792;SDS011;26080;42.264;24.536;2022-12-18T14:19:42;4.95;;;4.03;;
39792;SDS011;26080;42.264;24.536;2022-12-18T14:22:16;5.90;;;4.82;;
39792;SDS011;26080;42.264;24.536;2022-12-18T14:24:44;4.45;;;4.05;;
39792;SDS011;26080;42.264;24.536;2022-12-18T14:29:47;11.95;;;6.45;;
39792;SDS011;26080;42.264;24.536;2022-12-18T14:32:13;16.30;;;8.20;;
39792;SDS011;26080;42.264;24.536;2022-12-18T14:34:42;20.58;;;7.35;;
39792;SDS011;26080;42.264;24.536;2022-12-18T14:37:16;14.85;;;8.10;;
39792;SDS011;26080;42.264;24.536;2022-12-18T14:39:55;9.93;;;6.57;;
39792;SDS011;26080;42.264;24.536;2022-12-18T14:42:25;9.50;;;6.93;;
39792;SDS011;26080;42.264;24.536;2022-12-18T14:50:34;7.78;;;4.15;;
39792;SDS011;26080;42.264;24.536;2022-12-18T14:53:00;7.20;;;4.90;;
39792;SDS011;26080;42.264;24.536;2022-12-18T14:55:26;8.38;;;4.03;;
39792;SDS011;26080;42.264;24.536;2022-12-18T14:57:52;8.23;;;5.57;;
39792;SDS011;26080;42.264;24.536;2022-12-18T15:00:21;8.57;;;4.80;;
39792;SDS011;26080;42.264;24.536;2022-12-18T15:02:52;19.40;;;8.75;;
39792;SDS011;26080;42.264;24.536;2022-12-18T15:05:27;13.50;;;7.22;;
39792;SDS011;26080;42.264;24.536;2022-12-18T15:07:55;10.10;;;6.07;;
39792;SDS011;26080;42.264;24.536;2022-12-18T15:10:29;9.77;;;5.65;;
39792;SDS011;26080;42.264;24.536;2022-12-18T15:18:04;8.68;;;5.00;;
39792;SDS011;26080;42.264;24.536;2022-12-18T15:20:42;10.32;;;3.97;;
39792;SDS011;26080;42.264;24.536;2022-12-18T15:23:24;4.25;;;2.67;;
39792;SDS011;26080;42.264;24.536;2022-12-18T15:25:58;5.53;;;3.58;;
39792;SDS011;26080;42.264;24.536;2022-12-18T15:28:31;7.25;;;3.28;;
39792;SDS011;26080;42.264;24.536;2022-12-18T15:33:37;5.78;;;3.15;;
39792;SDS011;26080;42.264;24.536;2022-12-18T15:36:07;11.75;;;5.97;;
39792;SDS011;26080;42.264;24.536;2022-12-18T15:38:35;19.70;;;5.07;;
39792;SDS011;26080;42.264;24.536;2022-12-18T15:41:01;7.07;;;4.60;;
39792;SDS011;26080;42.264;24.536;2022-12-18T15:43:30;8.43;;;5.05;;
39792;SDS011;26080;42.264;24.536;2022-12-18T15:46:09;3.95;;;2.78;;
39792;SDS011;26080;42.264;24.536;2022-12-18T15:48:41;4.90;;;4.25;;
39792;SDS011;26080;42.264;24.536;2022-12-18T15:51:21;5.70;;;4.80;;
39792;SDS011;26080;42.264;24.536;2022-12-18T15:54:03;8.50;;;6.70;;
39792;SDS011;26080;42.264;24.536;2022-12-18T15:56:34;6.13;;;4.45;;
39792;SDS011;26080;42.264;24.536;2022-12-18T15:59:19;6.68;;;3.97;;
39792;SDS011;26080;42.264;24.536;2022-12-18T16:01:49;7.55;;;5.55;;
39792;SDS011;26080;42.264;24.536;2022-12-18T16:04:18;4.78;;;2.72;;
39792;SDS011;26080;42.264;24.536;2022-12-18T16:06:48;4.82;;;4.32;;
39792;SDS011;26080;42.264;24.536;2022-12-18T16:09:14;7.63;;;4.03;;
39792;SDS011;26080;42.264;24.536;2022-12-18T16:11:41;4.78;;;3.28;;
39792;SDS011;26080;42.264;24.536;2022-12-18T16:16:43;5.68;;;4.05;;
39792;SDS011;26080;42.264;24.536;2022-12-18T16:19:10;12.88;;;6.95;;
39792;SDS011;26080;42.264;24.536;2022-12-18T16:21:35;10.30;;;5.10;;
39792;SDS011;26080;42.264;24.536;2022-12-18T16:24:01;16.52;;;8.73;;
39792;SDS011;26080;42.264;24.536;2022-12-18T16:26:26;7.20;;;5.70;;
39792;SDS011;26080;42.264;24.536;2022-12-18T16:28:52;11.27;;;5.65;;
39792;SDS011;26080;42.264;24.536;2022-12-18T16:31:18;12.23;;;4.88;;
39792;SDS011;26080;42.264;24.536;2022-12-18T16:33:44;7.63;;;5.20;;
39792;SDS011;26080;42.264;24.536;2022-12-18T16:36:09;4.32;;;3.42;;
39792;SDS011;26080;42.264;24.536;2022-12-18T16:38:34;6.40;;;4.25;;
39792;SDS011;26080;42.264;24.536;2022-12-18T16:41:00;5.57;;;2.85;;
39792;SDS011;26080;42.264;24.536;2022-12-18T16:43:44;6.55;;;4.00;;
39792;SDS011;26080;42.264;24.536;2022-12-18T16:46:10;4.30;;;3.88;;
39792;SDS011;26080;42.264;24.536;2022-12-18T16:48:35;8.13;;;5.85;;
39792;SDS011;26080;42.264;24.536;2022-12-18T16:51:01;5.30;;;3.92;;
39792;SDS011;26080;42.264;24.536;2022-12-18T16:53:28;7.25;;;2.88;;
39792;SDS011;26080;42.264;24.536;2022-12-18T16:55:54;4.38;;;3.60;;
39792;SDS011;26080;42.264;24.536;2022-12-18T16:58:20;5.63;;;4.13;;
39792;SDS011;26080;42.264;24.536;2022-12-18T17:00:49;5.25;;;3.30;;
39792;SDS011;26080;42.264;24.536;2022-12-18T17:03:14;10.40;;;4.43;;
39792;SDS011;26080;42.264;24.536;2022-12-18T17:05:40;6.55;;;4.72;;
39792;SDS011;26080;42.264;24.536;2022-12-18T17:08:05;6.75;;;5.90;;
39792;SDS011;26080;42.264;24.536;2022-12-18T17:10:31;5.68;;;3.72;;
39792;SDS011;26080;42.264;24.536;2022-12-18T17:12:58;7.50;;;3.40;;
39792;SDS011;26080;42.264;24.536;2022-12-18T17:15:25;6.68;;;3.38;;
39792;SDS011;26080;42.264;24.536;2022-12-18T17:17:50;5.40;;;3.42;;
39792;SDS011;26080;42.264;24.536;2022-12-18T17:20:16;7.47;;;4.47;;
39792;SDS011;26080;42.264;24.536;2022-12-18T17:22:42;34.75;;;19.50;;
39792;SDS011;26080;42.264;24.536;2022-12-18T17:25:07;12.25;;;8.30;;
39792;SDS011;26080;42.264;24.536;2022-12-18T17:27:54;15.35;;;5.82;;
39792;SDS011;26080;42.264;24.536;2022-12-18T17:30:19;10.18;;;5.97;;
39792;SDS011;26080;42.264;24.536;2022-12-18T17:32:45;7.13;;;5.68;;
39792;SDS011;26080;42.264;24.536;2022-12-18T17:35:10;17.00;;;8.52;;
39792;SDS011;26080;42.264;24.536;2022-12-18T17:37:35;63.78;;;24.45;;